< Typhoon 197918 1979 Season Typhoon 197920 >
Typhoon 197919 (SARAH)
General InformationTrack Information on Google MapsDetailed Wind InformationList of All Images || Disaster Info.ResourceGoogle EarthGE AnimationAtom FeedGeoJSON
Detalied Best Track (Time Zone = UTC)
Year Month Day Hour Lat. Long. Pressure (hPa) Wind (kt) Class Image Chart
1979 10 1 00 14.0 118.0 1004 0 2 Image Chart
1979 10 1 06 14.4 118.1 1002 0 2 Image Chart
1979 10 1 12 15.0 118.2 1000 0 2 Image Chart
1979 10 1 18 15.5 119.0 1000 0 2 Image Chart
1979 10 2 00 16.0 120.0 1000 0 2 Image Chart
1979 10 2 06 16.2 120.5 1000 0 2 Image Chart
1979 10 2 12 16.3 121.0 1000 0 2 Image Chart
1979 10 2 18 15.6 121.0 1000 0 2 Image Chart
1979 10 3 00 15.0 121.0 1002 0 2 Image Chart
1979 10 3 06 14.7 120.8 1002 0 2 Image Chart
1979 10 3 12 14.5 120.5 1002 0 2 Image Chart
1979 10 3 18 14.3 120.2 1000 0 2 Image Chart
1979 10 4 00 14.2 120.0 1000 0 2 Image Chart
1979 10 4 06 14.1 119.8 1000 0 2 Image Chart
1979 10 4 12 14.0 119.5 998 0 2 Image Chart
1979 10 4 18 13.8 119.2 996 35 3 Image Chart
1979 10 5 00 13.5 118.8 994 40 3 Image Chart
1979 10 5 06 12.8 118.8 992 40 3 Image Chart
1979 10 5 12 12.5 119.3 990 45 3 Image Chart
1979 10 5 18 12.5 119.5 992 40 3 Image Chart
1979 10 6 00 12.4 119.6 994 40 3 Image Chart
1979 10 6 06 12.3 119.6 996 40 3 Image Chart
1979 10 6 12 12.3 119.5 996 35 3 Image Chart
1979 10 6 18 12.2 119.5 998 35 3 Image Chart
1979 10 7 00 12.2 119.4 998 35 3 Image Chart
1979 10 7 06 12.0 119.3 985 60 4 Image Chart
1979 10 7 12 11.8 119.2 980 65 5 Image Chart
1979 10 7 18 11.6 119.2 980 65 5 Image Chart
1979 10 8 00 11.4 119.2 985 65 5 Image Chart
1979 10 8 06 11.1 119.0 980 65 5 Image Chart
1979 10 8 12 11.0 118.7 980 65 5 Image Chart
1979 10 8 18 11.1 118.4 980 65 5 Image Chart
1979 10 9 00 11.2 118.0 970 65 5 Image Chart
1979 10 9 06 11.3 117.7 955 70 5 Image Chart
1979 10 9 12 11.4 117.3 950 80 5 Image Chart
1979 10 9 18 11.5 116.9 940 80 5 Image Chart
1979 10 10 00 11.6 116.6 935 90 5 Image Chart
1979 10 10 06 11.7 116.2 930 90 5 Image Chart
1979 10 10 12 11.7 116.0 940 90 5 Image Chart
1979 10 10 18 11.8 115.8 945 90 5 Image Chart
1979 10 11 00 11.9 115.5 955 90 5 Image Chart
1979 10 11 06 12.1 115.0 960 85 5 Image Chart
1979 10 11 12 12.2 114.7 960 85 5 Image Chart
1979 10 11 18 12.5 114.3 960 75 5 Image Chart
1979 10 12 00 12.7 114.0 965 70 5 Image Chart
1979 10 12 06 12.8 113.6 965 70 5 Image Chart
1979 10 12 12 13.1 113.3 965 70 5 Image Chart
1979 10 12 18 13.2 112.9 965 70 5 Image Chart
1979 10 13 00 13.2 112.5 965 70 5 Image Chart
1979 10 13 06 13.2 112.1 965 70 5 Image Chart
1979 10 13 12 13.2 111.8 965 70 5 Image Chart
1979 10 13 18 13.2 111.5 965 60 4 Image Chart
1979 10 14 00 13.2 111.0 965 60 4 Image Chart
1979 10 14 06 13.2 110.6 965 60 4 Image Chart
1979 10 14 12 13.2 110.0 980 50 4 Image Chart
1979 10 14 18 13.2 109.5 990 35 3 Image Chart
1979 10 15 00 13.0 109.0 998 0 2 Image Chart
1979 10 15 06 13.0 108.5 1000 0 2 Image Chart
1979 10 15 12 13.0 108.0 1000 0 2 Image Chart
1979 10 15 18 12.5 107.9 1004 0 2 Image Chart
1979 10 16 00 12.2 108.0 1006 0 2 Image Chart
1979 10 16 06 11.7 108.4 1006 0 2 Image Chart
1979 10 16 12 11.2 109.0 1008 0 2 Image Chart
1979 10 16 18 11.6 109.0 1008 0 2 Image Chart
1979 10 17 00 11.0 108.0 1008 0 2 Image Chart
1979 10 17 06 10.7 107.2 1008 0 2 Image Chart
Japan Meteorological Agency Best Track Data | Correction Date : 1992-10-21
< Typhoon 197918 1979 Season Typhoon 197920 >

Help